Pagrindinis puslapis
METAR-TAF:

METAR-TAF

Oro uostai :

Jämsä, Suomija

platuma: 61-51N, ilguma: 024-48E, Aukštis: 143 m

Dabartinis oras

Ataskaita buvo paskelbta 32 minutes, ne 09:50 UTC
Vėjas 11 kt iš Pietvakarių, svyruoja nuo Pietų ir Vakarų
Temperatūra 5°C
Drėgmė 75%
Slėgis 986 hPa
Matomumas 10 km arba daugiau
Išsisklaidę debesys ne aukštis 2000 ft

METAR: EFHA 180950Z 23011KT 190V260 9999 SCT020 05/01 Q0986

Laikas: 12:22 (10:22 UTC)

Prognozė

Ataskaita buvo paskelbta 1 valandą ir 50 minutes, ne 08:32 UTC
Prognozė galioja nuo 18 metu 09 UTC su 18 metu 14 UTC
Vėjas 13 kt iš Pietvakarių su gūsio iki 24 kt
Matomumas 10 km arba daugiau
Mažai debesys ne aukštis 1700 ft

TAF: EFHA 180832Z 1809/1814 23013G24KT 9999 FEW017

Orai ataskaitas ir orų prognozės (METAR, TAF).

turimą stotys yra geltonos ir raudonos taškus žemėlapyje.

Perkelti pele per norėdami pamatyti stoties vardą.

Tada spustelėkite, norėdami matyti oro stebėjimo ir prognozės.

Norėdami pakeisti žemėlapį: spustelėkite ant žalios mygtukų su juodo kryžiaus žemyn,; žalią mygtuką su brūkšneliu, jei norite nutolinti; arba žalių rodyklių gretimoms žemėlapius.


METAR-TAF: